Time;durP1;ratioP1;P1;durP2;ratioP2;P2;SDS_P1;SDS_P2;PMS_P1;PMS_P2;Temp;Humidity;BMP_temperature;BMP_pressure;BME280_temperature;BME280_humidity;BME280_pressure;Samples;Min_cycle;Max_cycle;Signal;HPM_P1;HPM_P2
2022/07/18 00:02:22;;;;;;;13.13;3.70;;;;;;;25.98;61.29;100963.03;4974212;28;20047;-82
2022/07/18 00:04:47;;;;;;;8.02;3.58;;;;;;;25.97;61.90;100958.66;4958342;29;20059;-84
2022/07/18 00:07:13;;;;;;;12.63;4.03;;;;;;;25.98;61.64;100969.28;4958469;29;20039;-83
2022/07/18 00:09:40;;;;;;;12.02;3.70;;;;;;;25.94;61.65;100965.44;4957612;29;20113;-86
2022/07/18 00:12:07;;;;;;;8.73;3.60;;;;;;;25.86;61.72;100968.56;4958482;29;20043;-85
2022/07/18 00:14:33;;;;;;;14.68;3.80;;;;;;;25.80;62.79;100964.16;4958295;29;20035;-79
2022/07/18 00:17:00;;;;;;;13.52;4.57;;;;;;;25.71;63.12;100965.66;4964007;29;20046;-89
2022/07/18 00:19:26;;;;;;;10.45;3.90;;;;;;;25.64;62.98;100968.56;4943050;29;20043;-88
2022/07/18 00:21:52;;;;;;;7.53;3.83;;;;;;;25.75;62.53;100966.81;4947420;29;20070;-85
2022/07/18 00:24:20;;;;;;;8.10;4.03;;;;;;;25.77;62.13;100972.81;4962195;29;20401;-84
2022/07/18 00:26:45;;;;;;;11.35;3.40;;;;;;;25.67;63.14;100964.53;4942701;29;20035;-84
2022/07/18 00:29:11;;;;;;;7.35;4.15;;;;;;;25.68;63.08;100974.31;4957741;29;20047;-83
2022/07/18 00:31:37;;;;;;;15.63;9.82;;;;;;;25.69;63.38;100973.22;4957372;28;20039;-81
2022/07/18 00:34:04;;;;;;;11.27;5.20;;;;;;;25.67;62.99;100969.94;4962366;28;20034;-85
2022/07/18 00:36:30;;;;;;;15.20;3.83;;;;;;;25.57;63.41;100975.25;4977839;28;20027;-89
2022/07/18 00:38:56;;;;;;;30.25;17.50;;;;;;;25.53;63.49;100972.19;4962465;28;20113;-85
2022/07/18 00:41:22;;;;;;;6.93;4.13;;;;;;;25.52;63.91;100977.91;4976865;28;20054;-85
2022/07/18 00:43:48;;;;;;;6.72;3.92;;;;;;;25.67;62.89;100975.38;4976194;28;20046;-85
2022/07/18 00:46:14;;;;;;;5.85;3.65;;;;;;;25.74;62.83;100980.63;4976681;28;20052;-82
2022/07/18 00:48:41;;;;;;;8.10;4.15;;;;;;;25.70;63.20;100986.56;4975849;28;20039;-84
2022/07/18 00:51:08;;;;;;;11.63;3.65;;;;;;;25.69;63.09;100981.38;4975946;28;20492;-85
2022/07/18 00:53:35;;;;;;;12.10;3.63;;;;;;;25.72;62.64;100972.72;4976613;28;20046;-84
2022/07/18 00:56:03;;;;;;;7.45;3.58;;;;;;;25.78;62.25;100977.19;4975977;28;20030;-83
2022/07/18 00:58:30;;;;;;;5.53;3.50;;;;;;;25.81;62.75;100987.53;4958751;28;20432;-82
2022/07/18 01:03:40;;;;;;;12.23;3.88;;;;;;;25.80;63.05;100985.88;4962355;28;20365;-84
2022/07/18 01:06:06;;;;;;;23.20;4.72;;;;;;;25.71;63.21;100998.25;4939822;29;20039;-81
2022/07/18 01:08:32;;;;;;;6.75;4.15;;;;;;;25.74;63.63;100992.31;4956990;29;20508;-84
2022/07/18 01:10:58;;;;;;;11.48;4.80;;;;;;;25.66;64.13;100990.03;4964414;28;20043;-88
2022/07/18 01:13:24;;;;;;;12.27;4.95;;;;;;;25.50;64.00;100991.69;4976623;28;20061;-88
2022/07/18 01:15:49;;;;;;;13.18;5.47;;;;;;;25.69;62.98;100994.94;4977542;28;20041;-89
2022/07/18 01:18:15;;;;;;;10.65;5.55;;;;;;;25.43;64.37;100995.63;4977541;28;20034;-87
2022/07/18 01:20:40;;;;;;;12.40;5.70;;;;;;;25.43;64.32;101001.03;4977286;28;20038;-87
2022/07/18 01:23:06;;;;;;;13.60;5.88;;;;;;;25.48;63.83;101004.69;4976918;28;20085;-88
2022/07/18 01:25:32;;;;;;;10.70;5.28;;;;;;;25.43;64.23;100995.63;4976338;28;20038;-89
2022/07/18 01:27:57;;;;;;;9.27;4.40;;;;;;;25.60;62.33;101002.72;4977238;28;20049;-86
2022/07/18 01:30:24;;;;;;;15.38;4.97;;;;;;;25.45;62.27;100998.91;4976079;28;20086;-88
2022/07/18 01:33:01;;;;;;;10.50;5.63;;;;;;;25.29;63.52;100991.63;4953109;29;20039;-87
2022/07/18 01:35:28;;;;;;;11.30;5.20;;;;;;;25.35;63.24;100987.91;4925130;29;20405;-84
2022/07/18 01:37:59;;;;;;;10.20;4.82;;;;;;;25.37;63.03;100991.19;4959998;29;20472;-90
2022/07/18 01:40:25;;;;;;;8.30;5.00;;;;;;;25.31;62.89;100981.31;4978922;28;20086;-87
2022/07/18 01:42:51;;;;;;;10.77;5.00;;;;;;;25.26;63.81;100986.66;4944311;29;20031;-87
2022/07/18 01:45:17;;;;;;;13.90;5.05;;;;;;;25.21;63.57;100990.13;4955905;28;20043;-86
2022/07/18 01:47:43;;;;;;;11.43;5.60;;;;;;;25.12;64.26;100989.69;4956748;29;20035;-89
2022/07/18 01:50:11;;;;;;;10.73;5.13;;;;;;;25.13;64.33;100996.78;4940049;29;20110;-87
2022/07/18 01:52:38;;;;;;;15.13;5.70;;;;;;;25.07;64.64;100997.78;4957142;29;20031;-90
2022/07/18 01:55:06;;;;;;;15.50;5.22;;;;;;;25.14;64.17;100998.44;4942947;29;20042;-90
2022/07/18 01:57:32;;;;;;;10.15;5.40;;;;;;;25.04;64.79;100998.25;4943882;29;20038;-89
2022/07/18 01:59:58;;;;;;;13.85;5.80;;;;;;;25.07;64.86;100992.34;4960563;29;20121;-90
2022/07/18 02:02:24;;;;;;;13.70;5.28;;;;;;;25.03;65.31;100991.19;4948109;28;20030;-92
2022/07/18 02:04:59;;;;;;;15.68;5.40;;;;;;;25.08;65.45;100988.56;4979243;28;20042;-91
2022/07/18 02:07:32;;;;;;;13.82;5.68;;;;;;;24.85;67.64;100986.00;4979242;28;20058;-88
2022/07/18 02:09:59;;;;;;;8.02;5.10;;;;;;;24.64;69.36;100998.34;4977404;28;20035;-91
2022/07/18 02:12:25;;;;;;;9.20;4.90;;;;;;;24.56;70.59;100989.78;4977343;28;20042;-88
2022/07/18 02:14:51;;;;;;;9.23;5.45;;;;;;;24.50;71.15;100996.16;4976350;28;20093;-92
2022/07/18 02:17:17;;;;;;;17.65;6.03;;;;;;;24.53;70.85;100995.66;4981692;28;20062;-88
2022/07/18 02:19:43;;;;;;;8.75;5.75;;;;;;;24.62;70.49;100999.66;4995894;28;20038;-89
2022/07/18 02:22:09;;;;;;;9.40;6.00;;;;;;;24.81;69.76;101000.25;4996797;28;20038;-90
2022/07/18 02:24:35;;;;;;;16.55;5.70;;;;;;;24.64;70.63;100997.50;4979631;28;20034;-89
2022/07/18 02:27:00;;;;;;;10.70;5.40;;;;;;;24.55;71.72;100994.38;4996395;28;20405;-88
2022/07/18 02:29:26;;;;;;;10.40;5.40;;;;;;;24.42;72.72;100991.13;4996266;28;20035;-89
2022/07/18 02:31:51;;;;;;;9.73;5.95;;;;;;;24.28;73.14;100993.28;4995714;28;20034;-88
2022/07/18 02:34:17;;;;;;;7.03;5.35;;;;;;;24.28;73.59;100992.47;4978141;28;20039;-89
2022/07/18 02:36:44;;;;;;;10.88;6.53;;;;;;;24.43;72.47;100996.28;4977381;28;20027;-89
2022/07/18 02:39:10;;;;;;;10.82;5.95;;;;;;;24.28;72.94;101006.00;4959380;28;20093;-87
2022/07/18 02:41:36;;;;;;;9.57;5.70;;;;;;;24.35;72.72;100999.41;4976670;28;20049;-90
2022/07/18 02:44:04;;;;;;;10.63;6.18;;;;;;;24.51;71.37;101000.50;4976168;28;20113;-87
2022/07/18 02:46:29;;;;;;;13.40;5.90;;;;;;;24.08;73.62;101000.97;4976056;28;20499;-88
2022/07/18 02:48:55;;;;;;;10.25;5.78;;;;;;;24.14;74.24;100998.16;4975462;28;20031;-89
2022/07/18 02:51:20;;;;;;;9.07;5.75;;;;;;;23.99;75.42;100992.41;4975813;28;20532;-89
2022/07/18 02:53:46;;;;;;;12.85;5.90;;;;;;;23.89;76.50;101000.31;4975242;28;20040;-88
2022/07/18 02:56:12;;;;;;;9.05;5.50;;;;;;;23.84;76.89;100992.06;4975577;28;20031;-87
2022/07/18 02:58:38;;;;;;;7.63;5.60;;;;;;;23.85;77.11;100999.13;4965908;28;20239;-88
2022/07/18 03:01:03;;;;;;;11.43;5.50;;;;;;;23.81;77.32;100997.13;4982354;28;20027;-87
2022/07/18 03:03:29;;;;;;;8.25;5.32;;;;;;;23.85;77.12;100999.13;4964893;28;20046;-88
2022/07/18 03:05:54;;;;;;;10.65;5.32;;;;;;;23.68;78.20;101004.44;4982285;28;20042;-86
2022/07/18 03:08:20;;;;;;;9.43;5.57;;;;;;;23.66;78.15;101003.03;4964237;28;20030;-88
2022/07/18 03:10:45;;;;;;;11.32;6.43;;;;;;;23.80;77.26;100996.28;4965719;28;20409;-88
2022/07/18 03:13:13;;;;;;;8.88;6.85;;;;;;;23.59;78.52;101000.47;4983564;28;20121;-89
2022/07/18 03:15:40;;;;;;;11.73;6.78;;;;;;;23.62;78.49;101013.50;4983648;28;20038;-90
2022/07/18 03:18:06;;;;;;;11.13;7.43;;;;;;;23.71;77.58;101013.97;4979338;28;20039;-89
2022/07/18 03:20:32;;;;;;;11.18;6.88;;;;;;;23.57;78.37;101012.56;4971121;28;20111;-91
2022/07/18 03:23:07;;;;;;;11.38;6.05;;;;;;;23.57;79.07;101015.25;5004323;28;20035;-92
2022/07/18 03:25:34;;;;;;;17.02;7.15;;;;;;;23.49;79.75;101019.16;4987609;28;20026;-90
2022/07/18 03:27:59;;;;;;;8.98;6.43;;;;;;;23.44;80.85;101015.50;5002918;28;20090;-90
2022/07/18 03:30:28;;;;;;;14.18;6.95;;;;;;;23.39;80.47;101016.19;4975084;28;20051;-89
2022/07/18 03:32:54;;;;;;;10.30;6.80;;;;;;;23.32;80.76;101017.34;5002084;28;20062;-90
2022/07/18 03:35:23;;;;;;;21.63;7.13;;;;;;;23.35;81.03;101016.88;4990296;28;20039;-91
2022/07/18 03:37:48;;;;;;;16.98;7.15;;;;;;;23.25;82.27;101019.31;4967117;28;20349;-90
2022/07/18 03:40:14;;;;;;;12.18;7.00;;;;;;;23.24;82.13;101018.50;4966994;28;20039;-88
2022/07/18 03:42:40;;;;;;;13.20;7.10;;;;;;;23.25;82.63;101020.16;4983942;28;20070;-90
2022/07/18 03:45:07;;;;;;;12.57;6.97;;;;;;;23.22;82.39;101008.97;4983686;28;20039;-90
2022/07/18 03:47:41;;;;;;;11.60;7.00;;;;;;;23.26;82.48;101015.56;4982744;28;20038;-89
2022/07/18 03:50:07;;;;;;;14.80;6.55;;;;;;;23.22;83.14;101014.38;4965637;28;20430;-91
2022/07/18 03:52:35;;;;;;;13.07;6.93;;;;;;;23.15;83.18;101019.91;4966299;28;20078;-92
2022/07/18 03:55:03;;;;;;;17.50;7.70;;;;;;;23.20;82.87;101024.63;4965838;28;20101;-90
2022/07/18 03:57:28;;;;;;;25.30;7.57;;;;;;;23.25;82.88;101022.03;4984414;28;20038;-90
2022/07/18 03:59:54;;;;;;;11.68;7.13;;;;;;;23.31;82.63;101015.69;4985242;28;20033;-90
2022/07/18 04:02:19;;;;;;;14.50;7.90;;;;;;;23.33;82.84;101010.88;4984053;28;20030;-89
2022/07/18 04:04:45;;;;;;;15.93;8.15;;;;;;;23.20;83.27;101016.50;4983664;28;20054;-89
2022/07/18 04:07:11;;;;;;;14.13;7.53;;;;;;;23.10;84.40;101017.09;4982795;28;20043;-90
2022/07/18 04:09:36;;;;;;;14.90;6.78;;;;;;;23.08;84.94;101020.00;4980853;28;20109;-91
2022/07/18 04:12:02;;;;;;;10.00;7.15;;;;;;;23.13;84.34;101022.81;4979677;28;20043;-90
2022/07/18 04:14:28;;;;;;;16.73;6.80;;;;;;;23.23;84.29;101016.88;4980007;28;20050;-91
2022/07/18 04:16:54;;;;;;;14.10;7.07;;;;;;;23.20;84.52;101022.72;4979889;28;20162;-92
2022/07/18 04:19:21;;;;;;;17.17;7.15;;;;;;;23.17;84.73;101025.88;4962550;28;20448;-89
2022/07/18 04:21:47;;;;;;;15.68;6.70;;;;;;;23.16;85.18;101022.38;4980340;28;20047;-91
2022/07/18 04:24:13;;;;;;;15.93;8.43;;;;;;;23.14;84.89;101029.88;4981011;28;20439;-91
2022/07/18 04:26:38;;;;;;;11.38;7.55;;;;;;;23.20;83.80;101032.75;4982068;28;20068;-91
2022/07/18 04:29:07;;;;;;;12.20;6.78;;;;;;;23.16;85.02;101040.50;4964351;28;20120;-89
2022/07/18 04:31:33;;;;;;;14.98;6.50;;;;;;;23.30;84.77;101043.81;4950336;28;20035;-89
2022/07/18 04:33:58;;;;;;;13.80;6.93;;;;;;;23.28;84.83;101054.84;4984012;28;20542;-91
2022/07/18 04:36:25;;;;;;;10.07;7.03;;;;;;;23.48;83.54;101046.44;4963294;28;20043;-90
2022/07/18 04:38:54;;;;;;;16.98;7.25;;;;;;;23.49;82.91;101048.09;4962992;28;20065;-90
2022/07/18 04:41:22;;;;;;;18.08;8.15;;;;;;;23.39;83.50;101042.41;4960844;28;20098;-87
2022/07/18 04:43:48;;;;;;;19.80;7.97;;;;;;;23.40;84.01;101044.88;4982015;28;20049;-88
2022/07/18 04:46:13;;;;;;;11.05;7.88;;;;;;;23.46;83.29;101051.28;4962837;28;20038;-87
2022/07/18 04:48:39;;;;;;;17.30;8.30;;;;;;;23.12;85.94;101059.06;4980329;28;20118;-88
2022/07/18 04:51:05;;;;;;;14.00;7.65;;;;;;;23.16;85.28;101049.44;4961120;28;20077;-85
2022/07/18 04:53:30;;;;;;;15.35;8.60;;;;;;;23.02;87.58;101056.09;4977726;28;20047;-89
2022/07/18 04:55:56;;;;;;;19.95;8.35;;;;;;;23.09;86.90;101048.69;4960427;28;20038;-87
2022/07/18 04:58:21;;;;;;;17.25;8.32;;;;;;;23.00;87.92;101044.66;4977573;28;20058;-88
2022/07/18 05:00:47;;;;;;;19.98;8.45;;;;;;;23.03;88.08;101055.03;4977839;28;20034;-86
2022/07/18 05:03:14;;;;;;;12.80;8.60;;;;;;;23.03;87.82;101051.50;4959988;28;20031;-90
2022/07/18 05:05:39;;;;;;;14.90;8.30;;;;;;;23.09;87.46;101043.28;4977230;28;20030;-86
2022/07/18 05:08:05;;;;;;;19.48;9.18;;;;;;;22.98;88.34;101048.66;4976706;28;20038;-87
2022/07/18 05:10:31;;;;;;;19.05;10.18;;;;;;;22.98;88.72;101051.34;4976204;28;20082;-89
2022/07/18 05:12:57;;;;;;;16.20;9.80;;;;;;;22.84;89.66;101045.31;4976770;28;20033;-84
2022/07/18 05:15:24;;;;;;;16.65;10.00;;;;;;;22.65;91.12;101041.81;4976417;28;20039;-86
2022/07/18 05:17:51;;;;;;;21.13;10.13;;;;;;;22.92;89.94;101046.88;4958691;28;20115;-85
2022/07/18 05:20:19;;;;;;;19.70;8.73;;;;;;;22.90;89.82;101049.00;4976454;28;20054;-86
2022/07/18 05:22:45;;;;;;;24.70;10.07;;;;;;;22.79;90.56;101049.78;4958565;28;20453;-86
2022/07/18 05:25:12;;;;;;;15.75;9.98;;;;;;;22.77;91.35;101049.97;4975863;28;20114;-84
2022/07/18 05:27:38;;;;;;;18.63;9.82;;;;;;;22.97;89.74;101050.53;4959006;28;20069;-88
2022/07/18 05:30:06;;;;;;;15.63;9.75;;;;;;;23.00;89.65;101052.75;4975973;28;20026;-88
2022/07/18 05:32:31;;;;;;;21.73;10.05;;;;;;;23.24;88.94;101047.41;4976434;28;20074;-88
2022/07/18 05:35:00;;;;;;;24.35;10.38;;;;;;;23.50;87.18;101049.72;4958951;28;20061;-85
2022/07/18 05:37:25;;;;;;;23.02;9.88;;;;;;;23.61;86.94;101047.03;4976318;28;20035;-87
2022/07/18 05:39:51;;;;;;;19.15;8.60;;;;;;;23.73;86.35;101060.56;4976434;28;20538;-87
2022/07/18 05:42:17;;;;;;;21.98;8.48;;;;;;;23.83;85.75;101049.97;4958365;28;20544;-88
2022/07/18 05:44:43;;;;;;;20.27;8.75;;;;;;;24.01;84.93;101052.56;4942212;28;20129;-87
2022/07/18 05:47:09;;;;;;;23.38;8.65;;;;;;;24.27;83.91;101047.69;4957693;28;20069;-86
2022/07/18 05:49:35;;;;;;;23.50;9.02;;;;;;;24.43;83.04;101050.47;4975477;28;20035;-88
2022/07/18 05:52:00;;;;;;;26.85;9.02;;;;;;;24.53;82.62;101055.28;4974944;28;20031;-92
2022/07/18 05:54:26;;;;;;;18.02;7.82;;;;;;;24.78;81.62;101053.09;4957947;28;20042;-87
2022/07/18 05:56:52;;;;;;;20.98;8.18;;;;;;;24.83;79.83;101055.91;4957885;28;20097;-85
2022/07/18 05:59:19;;;;;;;19.02;8.48;;;;;;;24.91;79.58;101057.41;4957787;28;20047;-88
2022/07/18 06:01:45;;;;;;;21.17;7.53;;;;;;;25.09;78.83;101058.00;4976045;28;20084;-84
2022/07/18 06:04:11;;;;;;;16.25;7.07;;;;;;;25.18;77.49;101056.56;4976205;28;20090;-85
2022/07/18 06:06:37;;;;;;;16.52;7.03;;;;;;;25.37;75.70;101051.72;4958735;28;20046;-87
2022/07/18 06:09:03;;;;;;;14.95;8.10;;;;;;;25.22;76.36;101053.34;4976262;28;20039;-88
2022/07/18 06:11:29;;;;;;;16.92;8.43;;;;;;;25.32;76.00;101064.38;4974938;28;20035;-88
2022/07/18 06:13:55;;;;;;;20.67;8.48;;;;;;;25.30;76.63;101063.78;4957251;28;20171;-88
2022/07/18 06:16:20;;;;;;;17.40;7.63;;;;;;;25.63;75.68;101063.81;4974798;28;20051;-88
2022/07/18 06:18:46;;;;;;;15.50;7.90;;;;;;;26.11;72.49;101066.72;4958422;28;20049;-86
2022/07/18 06:21:12;;;;;;;15.35;7.50;;;;;;;26.48;70.39;101075.09;4974658;28;20113;-88
2022/07/18 06:23:38;;;;;;;12.77;8.18;;;;;;;26.42;70.37;101078.81;4974631;28;20058;-85
2022/07/18 06:26:04;;;;;;;19.55;8.45;;;;;;;26.34;70.88;101083.88;4957021;28;20082;-89
2022/07/18 06:28:30;;;;;;;18.25;8.18;;;;;;;26.97;68.90;101073.25;4974267;28;20068;-87
2022/07/18 06:30:56;;;;;;;15.38;8.00;;;;;;;26.95;69.04;101080.00;4974668;28;20397;-86
2022/07/18 06:33:21;;;;;;;12.48;7.95;;;;;;;27.45;67.06;101087.84;4973655;28;20121;-87
2022/07/18 06:35:47;;;;;;;18.63;7.80;;;;;;;27.61;65.43;101095.06;4956710;28;20046;-86
2022/07/18 06:38:14;;;;;;;16.42;7.70;;;;;;;27.08;68.17;101088.56;4974219;28;20062;-86
2022/07/18 06:40:39;;;;;;;15.65;7.20;;;;;;;27.31;67.75;101086.63;4974197;28;20043;-87
2022/07/18 06:43:06;;;;;;;12.68;6.97;;;;;;;27.58;67.54;101090.13;4974558;28;20110;-87
2022/07/18 06:45:32;;;;;;;12.02;6.20;;;;;;;27.97;65.66;101088.78;4973911;28;20074;-86
2022/07/18 06:47:57;;;;;;;11.02;5.88;;;;;;;27.76;66.13;101086.19;4975332;28;20042;-86
2022/07/18 06:50:23;;;;;;;8.55;5.50;;;;;;;28.09;64.79;101086.72;4975771;28;20039;-86
2022/07/18 06:52:51;;;;;;;14.63;6.28;;;;;;;28.13;64.50;101081.56;4976189;28;20082;-85
2022/07/18 06:55:17;;;;;;;16.83;6.63;;;;;;;27.97;65.55;101088.78;4958046;28;20047;-87
2022/07/18 06:57:44;;;;;;;14.95;5.90;;;;;;;28.12;65.03;101086.19;4975950;28;20098;-86
2022/07/18 07:00:13;;;;;;;14.32;5.15;;;;;;;29.02;60.31;101098.53;4958289;28;20042;-87
2022/07/18 07:02:46;;;;;;;7.88;4.43;;;;;;;28.90;60.08;101103.41;4960387;28;20039;-88
2022/07/18 07:05:13;;;;;;;10.40;4.90;;;;;;;28.68;59.93;101100.91;4958196;28;20035;-91
2022/07/18 07:07:39;;;;;;;11.73;4.65;;;;;;;28.07;62.62;101099.75;4960704;28;20038;-89
2022/07/18 07:10:05;;;;;;;9.57;3.30;;;;;;;28.94;57.92;101099.06;4964158;28;20496;-90
2022/07/18 07:12:44;;;;;;;9.52;3.72;;;;;;;28.72;57.96;101091.09;4977294;28;20031;-90
2022/07/18 07:15:10;;;;;;;6.28;3.30;;;;;;;28.94;56.80;101088.16;4983828;28;20031;-90
2022/07/18 07:17:36;;;;;;;6.95;3.67;;;;;;;29.18;55.59;101089.28;4961083;28;20137;-90
2022/07/18 07:20:10;;;;;;;10.32;4.03;;;;;;;29.30;55.06;101096.44;4987853;28;20030;-92
2022/07/18 07:22:48;;;;;;;9.32;4.30;;;;;;;29.66;52.94;101089.88;4981458;28;20054;-91
2022/07/18 07:25:20;;;;;;;7.68;3.35;;;;;;;29.65;53.56;101088.22;4980392;28;20046;-91
2022/07/18 07:27:46;;;;;;;8.18;3.90;;;;;;;30.19;51.55;101080.25;4996830;28;20015;-89
2022/07/18 07:30:14;;;;;;;12.25;3.63;;;;;;;30.19;51.59;101094.69;4994114;28;20057;-87
2022/07/18 07:32:42;;;;;;;6.70;4.00;;;;;;;30.31;50.47;101096.31;4980855;28;20137;-90
2022/07/18 07:35:12;;;;;;;12.35;3.70;;;;;;;30.32;49.84;101089.75;4957410;28;20038;-91
2022/07/18 07:37:39;;;;;;;11.18;4.00;;;;;;;30.34;49.36;101096.56;4975115;28;20030;-90
2022/07/18 07:40:05;;;;;;;6.38;3.67;;;;;;;29.97;50.18;101102.41;4957328;28;20090;-89
2022/07/18 07:42:31;;;;;;;11.68;4.20;;;;;;;29.68;50.95;101095.88;4956855;28;20451;-89
2022/07/18 07:44:56;;;;;;;9.90;3.42;;;;;;;30.19;49.50;101093.91;4976842;28;20058;-86
2022/07/18 07:47:22;;;;;;;9.40;4.20;;;;;;;30.26;49.35;101095.22;4978023;28;20384;-88
2022/07/18 07:49:47;;;;;;;8.57;4.85;;;;;;;29.79;49.87;101100.25;4961086;28;20039;-88
2022/07/18 07:52:14;;;;;;;12.13;4.20;;;;;;;29.31;51.58;101106.25;4978221;28;20507;-90
2022/07/18 07:54:47;;;;;;;9.82;4.20;;;;;;;29.72;48.96;101094.25;4961275;28;20039;-90
2022/07/18 07:57:13;;;;;;;15.63;4.70;;;;;;;29.52;50.76;101088.78;4977995;28;20095;-90
2022/07/18 07:59:38;;;;;;;13.45;5.00;;;;;;;30.09;49.68;101092.03;4960442;28;20074;-83
2022/07/18 08:02:04;;;;;;;6.82;4.35;;;;;;;31.10;47.18;101088.84;4978103;28;20551;-87
2022/07/18 08:04:30;;;;;;;13.02;4.82;;;;;;;31.51;45.09;101094.03;4977590;28;20023;-81
2022/07/18 08:06:56;;;;;;;12.85;4.32;;;;;;;31.21;45.77;101100.56;4977110;28;20057;-81
2022/07/18 08:09:21;;;;;;;7.93;4.45;;;;;;;31.05;45.69;101093.56;4977004;28;20035;-81
2022/07/18 08:11:47;;;;;;;8.75;4.55;;;;;;;31.42;45.24;101106.69;4977051;28;20043;-81
2022/07/18 08:14:13;;;;;;;11.70;4.72;;;;;;;31.61;44.71;101094.78;4976602;28;20102;-80
2022/07/18 08:16:38;;;;;;;14.07;4.43;;;;;;;32.01;43.48;101103.72;4976697;28;20031;-79
2022/07/18 08:19:04;;;;;;;9.00;3.78;;;;;;;32.07;43.06;101103.41;4976239;28;20513;-78
2022/07/18 08:21:29;;;;;;;11.73;3.95;;;;;;;31.68;43.56;101108.16;4976285;28;20035;-84
2022/07/18 08:23:55;;;;;;;10.55;4.25;;;;;;;31.78;43.20;101099.84;4959231;28;20802;-81
2022/07/18 08:26:21;;;;;;;11.55;3.65;;;;;;;31.88;43.57;101099.72;4976732;28;20477;-82
2022/07/18 08:28:47;;;;;;;10.98;5.00;;;;;;;32.23;41.86;101096.63;4976301;28;20568;-81
2022/07/18 08:31:13;;;;;;;12.50;4.30;;;;;;;31.61;43.96;101088.47;4976396;28;20057;-79
2022/07/18 08:33:39;;;;;;;9.40;4.07;;;;;;;31.42;43.37;101090.25;4986155;28;20439;-80
2022/07/18 08:36:04;;;;;;;9.80;3.80;;;;;;;31.92;42.41;101100.75;4976117;28;20443;-78
2022/07/18 08:38:34;;;;;;;11.48;4.30;;;;;;;32.43;41.28;101092.00;4978116;28;20047;-83
2022/07/18 08:41:01;;;;;;;9.75;4.20;;;;;;;32.46;41.60;101099.63;4980380;28;20522;-82
2022/07/18 08:43:27;;;;;;;7.72;4.00;;;;;;;32.96;40.26;101090.75;4986645;28;20039;-81
2022/07/18 08:46:02;;;;;;;14.75;4.35;;;;;;;32.90;40.00;101082.88;4987584;28;20053;-80
2022/07/18 08:48:28;;;;;;;11.32;4.32;;;;;;;33.92;38.59;101091.94;4979312;28;20042;-78
2022/07/18 08:50:53;;;;;;;13.05;4.13;;;;;;;34.33;37.63;101093.91;4981104;28;20031;-80
2022/07/18 08:53:20;;;;;;;9.95;3.40;;;;;;;34.52;36.94;101086.34;4972945;28;20725;-82
2022/07/18 08:55:47;;;;;;;10.73;4.15;;;;;;;33.89;37.25;101100.78;4973932;28;20055;-86
2022/07/18 08:58:14;;;;;;;7.45;3.55;;;;;;;33.33;38.72;101089.09;4975155;28;20496;-86
2022/07/18 09:00:41;;;;;;;8.50;4.03;;;;;;;33.48;38.78;101097.91;4974524;28;20085;-83
2022/07/18 09:03:07;;;;;;;11.10;3.90;;;;;;;33.98;37.93;101092.63;4983473;28;20015;-83
2022/07/18 09:05:33;;;;;;;11.52;3.50;;;;;;;33.52;38.25;101096.19;4971402;28;20042;-83
2022/07/18 09:08:21;;;;;;;13.95;3.42;;;;;;;33.60;38.37;101087.28;4971473;28;20051;-82
2022/07/18 09:10:51;;;;;;;21.25;3.75;;;;;;;33.09;38.91;101086.44;4939575;29;20043;-82
2022/07/18 09:13:18;;;;;;;9.20;3.63;;;;;;;32.26;40.28;101084.25;4957606;29;20043;-82
2022/07/18 09:16:02;;;;;;;8.60;3.80;;;;;;;31.98;40.73;101093.31;4974405;28;20077;-81
2022/07/18 09:18:33;;;;;;;11.10;4.18;;;;;;;32.16;40.60;101096.16;4977034;28;20070;-81
2022/07/18 09:21:06;;;;;;;8.48;3.80;;;;;;;32.07;39.75;101095.16;4960196;28;20535;-88
2022/07/18 09:23:33;;;;;;;5.88;3.58;;;;;;;32.25;39.70;101099.88;4974342;28;20118;-86
2022/07/18 09:26:01;;;;;;;7.30;3.20;;;;;;;31.98;39.33;101096.88;4974250;28;20121;-91
2022/07/18 09:28:48;;;;;;;8.07;3.50;;;;;;;32.07;39.51;101088.84;4974580;28;20527;-90
2022/07/18 09:31:21;;;;;;;9.00;3.70;;;;;;;32.25;39.11;101082.59;4974265;28;20038;-90
2022/07/18 09:34:02;;;;;;;10.48;3.70;;;;;;;32.09;39.43;101094.84;4975543;28;20090;-88
2022/07/18 09:36:30;;;;;;;12.02;3.45;;;;;;;32.31;38.10;101084.19;4974755;28;20034;-89
2022/07/18 09:38:55;;;;;;;4.93;3.10;;;;;;;32.65;37.16;101081.28;4984740;28;20046;-86
2022/07/18 09:41:23;;;;;;;7.18;2.47;;;;;;;33.05;35.97;101088.94;4989925;28;20131;-87
2022/07/18 09:43:48;;;;;;;9.98;3.10;;;;;;;32.97;36.26;101083.31;4989466;28;20106;-84
2022/07/18 09:46:14;;;;;;;11.07;3.47;;;;;;;32.83;35.82;101088.75;4986517;28;20098;-88
2022/07/18 09:48:40;;;;;;;7.72;3.22;;;;;;;32.71;35.08;101097.41;4980367;28;20027;-83
2022/07/18 09:51:07;;;;;;;9.40;3.40;;;;;;;32.50;36.15;101096.03;4974072;28;20448;-83
2022/07/18 09:53:48;;;;;;;9.32;3.40;;;;;;;32.68;36.24;101086.22;4970006;28;20187;-86
2022/07/18 09:56:39;;;;;;;7.40;2.70;;;;;;;32.68;35.28;101089.75;4985732;28;20042;-86
2022/07/18 09:59:15;;;;;;;10.07;3.63;;;;;;;32.40;36.16;101085.19;4980811;28;20042;-87
2022/07/18 10:01:42;;;;;;;9.75;2.70;;;;;;;32.30;35.50;101074.31;4990907;28;20045;-87
2022/07/18 10:04:09;;;;;;;6.47;2.65;;;;;;;32.44;35.36;101079.91;4962139;28;20062;-86
2022/07/18 10:06:35;;;;;;;5.95;2.65;;;;;;;32.41;35.23;101080.50;4959688;28;20038;-87
2022/07/18 10:09:01;;;;;;;6.82;2.53;;;;;;;32.60;34.67;101078.63;4975425;28;20039;-85
2022/07/18 10:11:34;;;;;;;6.85;3.00;;;;;;;32.50;35.50;101078.75;4994771;28;20026;-89
2022/07/18 10:14:01;;;;;;;8.90;2.25;;;;;;;32.70;34.38;101067.50;4975527;28;20047;-88
2022/07/18 10:16:27;;;;;;;4.88;2.50;;;;;;;32.82;33.57;101070.63;4991118;28;20046;-88
2022/07/18 10:18:52;;;;;;;8.95;2.58;;;;;;;32.66;33.85;101066.47;4956277;28;20100;-89
2022/07/18 10:21:20;;;;;;;8.40;2.60;;;;;;;33.04;32.90;101068.13;4991906;28;20049;-87
2022/07/18 10:23:48;;;;;;;13.45;2.42;;;;;;;33.07;32.65;101066.69;4973668;28;20049;-89
2022/07/18 10:26:15;;;;;;;6.72;2.75;;;;;;;32.70;32.79;101070.25;4974531;28;20066;-87
2022/07/18 10:28:56;;;;;;;9.07;2.78;;;;;;;32.95;32.80;101058.06;4993901;28;20272;-88
2022/07/18 10:31:30;;;;;;;5.00;2.20;;;;;;;33.71;31.84;101054.91;4993584;28;20035;-88
2022/07/18 10:34:07;;;;;;;9.65;2.40;;;;;;;33.74;31.03;101057.88;4994542;28;20507;-88
2022/07/18 10:36:38;;;;;;;4.68;2.25;;;;;;;33.84;31.01;101058.81;4993556;28;20090;-87
2022/07/18 10:39:06;;;;;;;9.25;2.65;;;;;;;33.74;30.73;101055.13;4994897;28;20026;-88
2022/07/18 10:41:38;;;;;;;16.40;2.15;;;;;;;33.79;30.95;101051.47;4959800;28;20078;-89
2022/07/18 10:44:20;;;;;;;6.07;2.65;;;;;;;33.90;30.64;101052.94;4993552;28;20083;-87
2022/07/18 10:47:24;;;;;;;8.32;2.28;;;;;;;33.84;30.01;101056.88;4974613;28;20070;-86
2022/07/18 10:49:50;;;;;;;8.68;2.47;;;;;;;33.74;30.00;101054.34;4991633;28;20062;-91
2022/07/18 10:52:40;;;;;;;4.78;2.33;;;;;;;33.59;30.44;101035.31;4992803;28;20070;-89
2022/07/18 10:55:05;;;;;;;6.85;2.58;;;;;;;34.13;29.68;101029.94;4968140;28;20066;-89
2022/07/18 10:57:42;;;;;;;6.53;2.40;;;;;;;33.73;30.25;101037.03;4992929;28;20027;-87
2022/07/18 11:00:21;;;;;;;7.53;2.38;;;;;;;33.90;29.92;101041.09;4991973;28;20039;-87
2022/07/18 11:03:19;;;;;;;6.28;2.40;;;;;;;33.43;30.08;101032.03;4973752;28;20089;-88
2022/07/18 11:05:49;;;;;;;3.88;2.00;;;;;;;33.44;30.52;101032.88;4972186;28;20099;-87
2022/07/18 11:08:36;;;;;;;5.60;2.10;;;;;;;33.71;29.96;101030.16;4964254;28;20053;-88
2022/07/18 11:11:02;;;;;;;6.18;2.35;;;;;;;34.04;29.61;101039.97;4971156;29;20035;-87
2022/07/18 11:16:21;;;;;;;3.42;1.90;;;;;;;33.93;29.78;101030.31;4973550;29;20043;-86
2022/07/18 11:18:50;;;;;;;5.70;2.22;;;;;;;33.82;29.89;101028.88;4975768;28;20067;-84
2022/07/18 11:21:21;;;;;;;3.78;2.05;;;;;;;33.64;30.18;101027.03;4978197;29;20035;-86
2022/07/18 11:23:52;;;;;;;3.70;2.40;;;;;;;33.88;29.99;101024.91;4958117;29;20043;-88
2022/07/18 11:26:20;;;;;;;4.53;2.25;;;;;;;34.04;30.42;101034.47;4952992;29;20051;-85
2022/07/18 11:28:56;;;;;;;4.30;2.20;;;;;;;33.54;30.41;101029.94;4940598;29;20066;-89